Time;durP1;ratioP1;P1;durP2;ratioP2;P2;SDS_P1;SDS_P2;PMS_P1;PMS_P2;Temp;Humidity;BMP_temperature;BMP_pressure;BME280_temperature;BME280_humidity;BME280_pressure;Samples;Min_cycle;Max_cycle;Signal;HPM_P1;HPM_P2
2022/08/30 00:01:19;;;;;;;4.50;4.20;;;16.80;1.00;;;;;;6277793;28;20320;-61
2022/08/30 00:04:24;;;;;;;4.13;4.00;;;16.70;1.00;;;;;;6288054;28;20276;-55
2022/08/30 00:07:27;;;;;;;3.70;3.60;;;16.70;1.00;;;;;;6268689;28;20879;-55
2022/08/30 00:10:30;;;;;;;4.50;4.40;;;16.60;1.00;;;;;;6262066;28;20376;-54
2022/08/30 00:13:38;;;;;;;4.03;3.83;;;16.60;1.00;;;;;;6260707;28;20612;-54
2022/08/30 00:16:42;;;;;;;4.67;4.40;;;16.50;1.00;;;;;;6284856;28;20230;-55
2022/08/30 00:19:46;;;;;;;4.53;4.43;;;16.60;1.00;;;;;;6281001;28;20240;-55
2022/08/30 00:22:49;;;;;;;4.90;4.60;;;16.50;1.00;;;;;;6285623;28;20375;-55
2022/08/30 00:25:52;;;;;;;5.10;4.80;;;16.60;1.00;;;;;;6267021;28;20276;-54
2022/08/30 00:28:55;;;;;;;5.63;5.33;;;16.60;1.00;;;;;;6261836;28;20387;-55
2022/08/30 00:32:01;;;;;;;4.47;4.30;;;16.60;1.00;;;;;;6265773;28;20269;-55
2022/08/30 00:35:05;;;;;;;4.60;4.40;;;16.60;1.00;;;;;;6277120;28;20229;-56
2022/08/30 00:38:09;;;;;;;5.27;4.93;;;16.60;1.00;;;;;;6279386;28;20742;-55
2022/08/30 00:41:12;;;;;;;4.93;4.47;;;16.60;1.00;;;;;;6261401;28;20335;-55
2022/08/30 00:44:15;;;;;;;5.00;4.80;;;16.60;1.00;;;;;;6260813;28;20425;-56
2022/08/30 00:47:27;;;;;;;4.53;4.43;;;16.50;1.00;;;;;;6260808;28;20238;-54
2022/08/30 00:50:35;;;;;;;4.33;4.23;;;16.50;1.00;;;;;;6272534;28;20244;-54
2022/08/30 00:53:42;;;;;;;4.20;4.10;;;16.50;1.00;;;;;;6284902;28;20233;-55
2022/08/30 00:56:46;;;;;;;4.40;4.30;;;16.40;1.00;;;;;;6279099;28;20379;-55
2022/08/30 00:59:50;;;;;;;4.67;4.47;;;16.50;1.00;;;;;;6259922;28;20345;-55
2022/08/30 01:02:54;;;;;;;4.07;3.97;;;16.40;1.00;;;;;;6272421;28;20229;-56
2022/08/30 01:05:59;;;;;;;5.47;5.13;;;16.30;1.00;;;;;;6272662;28;20436;-55
2022/08/30 01:09:04;;;;;;;4.10;4.00;;;16.30;1.00;;;;;;6260720;28;20667;-54
2022/08/30 01:12:11;;;;;;;4.97;4.87;;;16.30;1.00;;;;;;6260907;28;20234;-55
2022/08/30 01:15:18;;;;;;;5.17;4.97;;;16.30;1.00;;;;;;6259812;28;20358;-55
2022/08/30 01:18:24;;;;;;;4.57;4.47;;;16.30;1.00;;;;;;6259714;28;20264;-55
2022/08/30 01:21:34;;;;;;;4.83;4.63;;;16.20;1.00;;;;;;6269293;28;20379;-54
2022/08/30 01:24:38;;;;;;;5.20;5.00;;;16.20;1.00;;;;;;6284582;28;20319;-54
2022/08/30 01:27:45;;;;;;;5.47;5.17;;;16.20;1.00;;;;;;6284583;28;20372;-55
2022/08/30 01:30:48;;;;;;;5.30;5.10;;;16.20;1.00;;;;;;6262828;28;20653;-54
2022/08/30 01:33:51;;;;;;;4.73;4.60;;;16.20;1.00;;;;;;6280598;28;20241;-56
2022/08/30 01:36:54;;;;;;;4.57;4.47;;;16.20;1.00;;;;;;6279478;28;20332;-55
2022/08/30 01:39:59;;;;;;;4.77;4.67;;;16.10;1.00;;;;;;6259798;28;20237;-54
2022/08/30 01:43:02;;;;;;;5.47;5.27;;;16.10;1.00;;;;;;6259524;28;20372;-54
2022/08/30 01:46:05;;;;;;;4.93;4.83;;;16.10;1.00;;;;;;6259829;28;20491;-55
2022/08/30 01:49:11;;;;;;;5.10;4.80;;;16.00;1.00;;;;;;6231095;28;20416;-54
2022/08/30 01:52:16;;;;;;;6.00;5.80;;;16.00;1.00;;;;;;6259641;28;20341;-55
2022/08/30 01:55:23;;;;;;;6.37;5.97;;;16.00;1.00;;;;;;6259115;28;20329;-55
2022/08/30 01:58:28;;;;;;;7.97;7.37;;;16.00;1.00;;;;;;6258715;28;20249;-55
2022/08/30 02:01:34;;;;;;;5.77;5.57;;;16.00;1.00;;;;;;6275833;28;20320;-55
2022/08/30 02:04:37;;;;;;;5.90;5.60;;;16.00;1.00;;;;;;6282767;28;20261;-54
2022/08/30 02:07:40;;;;;;;6.73;6.33;;;16.00;1.00;;;;;;6276291;28;20238;-55
2022/08/30 02:10:44;;;;;;;5.83;5.53;;;16.10;1.00;;;;;;6283460;28;20332;-54
2022/08/30 02:13:47;;;;;;;5.63;5.40;;;16.10;1.00;;;;;;6277253;28;20237;-55
2022/08/30 02:16:53;;;;;;;6.27;5.90;;;16.00;1.00;;;;;;6258561;28;20325;-56
2022/08/30 02:19:56;;;;;;;5.97;5.77;;;16.00;1.00;;;;;;6267470;28;20236;-54
2022/08/30 02:22:59;;;;;;;6.13;5.93;;;16.00;1.00;;;;;;6285369;28;20694;-55
2022/08/30 02:26:05;;;;;;;6.90;6.60;;;16.00;1.00;;;;;;6282974;28;20236;-56
2022/08/30 02:29:08;;;;;;;6.77;6.47;;;15.90;1.00;;;;;;6274362;28;20824;-55
2022/08/30 02:32:11;;;;;;;6.30;6.10;;;16.00;1.00;;;;;;6265930;28;20546;-55
2022/08/30 02:35:14;;;;;;;9.87;8.00;;;16.00;1.00;;;;;;6276704;28;20245;-54
2022/08/30 02:38:18;;;;;;;8.47;7.70;;;16.00;1.00;;;;;;6275824;28;20380;-54
2022/08/30 02:41:23;;;;;;;8.23;7.80;;;16.00;1.00;;;;;;6258333;28;20251;-54
2022/08/30 02:44:27;;;;;;;7.27;6.93;;;16.00;1.00;;;;;;6258063;28;20371;-55
2022/08/30 02:47:30;;;;;;;7.77;7.27;;;16.00;1.00;;;;;;6257450;28;20670;-55
2022/08/30 02:50:33;;;;;;;7.10;6.63;;;15.90;1.00;;;;;;6257475;28;20246;-56
2022/08/30 02:53:37;;;;;;;7.10;6.70;;;16.00;1.00;;;;;;6257665;28;20262;-55
2022/08/30 02:56:42;;;;;;;7.83;7.33;;;15.90;1.00;;;;;;6257818;28;20316;-54
2022/08/30 02:59:46;;;;;;;6.87;6.57;;;16.00;1.00;;;;;;6266127;28;20379;-55
2022/08/30 03:02:49;;;;;;;7.93;7.43;;;16.00;1.00;;;;;;6280969;28;20734;-55
2022/08/30 03:05:52;;;;;;;7.83;7.23;;;15.90;1.00;;;;;;6282882;28;20332;-55
2022/08/30 03:08:55;;;;;;;8.07;7.67;;;15.90;1.00;;;;;;6281511;28;20796;-56
2022/08/30 03:11:59;;;;;;;8.20;7.80;;;15.90;1.00;;;;;;6282732;28;20723;-55
2022/08/30 03:15:02;;;;;;;7.97;7.20;;;15.80;1.00;;;;;;6274924;28;20326;-56
2022/08/30 03:18:06;;;;;;;9.40;8.70;;;15.80;1.00;;;;;;6271696;28;20246;-55
2022/08/30 03:21:11;;;;;;;7.80;7.40;;;15.80;1.00;;;;;;6256849;28;20234;-56
2022/08/30 03:24:13;;;;;;;6.97;6.67;;;15.80;1.00;;;;;;6257064;28;20257;-54
2022/08/30 03:27:18;;;;;;;7.20;6.73;;;15.80;1.00;;;;;;6266993;28;20290;-55
2022/08/30 03:30:28;;;;;;;7.30;7.00;;;15.80;1.00;;;;;;6280480;28;20312;-53
2022/08/30 03:33:35;;;;;;;6.93;6.40;;;15.70;1.00;;;;;;6253130;28;20650;-55
2022/08/30 03:36:39;;;;;;;8.40;7.80;;;15.70;1.00;;;;;;6279760;28;20294;-54
2022/08/30 03:39:48;;;;;;;8.30;7.80;;;15.70;1.00;;;;;;6278739;28;20269;-54
2022/08/30 03:42:53;;;;;;;8.80;8.20;;;15.70;1.00;;;;;;6281767;28;20821;-56
2022/08/30 03:45:56;;;;;;;8.83;8.23;;;15.70;1.00;;;;;;6286333;28;20419;-55
2022/08/30 03:48:59;;;;;;;8.63;8.03;;;15.70;1.00;;;;;;6274536;28;20240;-59
2022/08/30 03:52:02;;;;;;;6.33;6.03;;;15.70;1.00;;;;;;6285154;28;20278;-55
2022/08/30 03:55:06;;;;;;;5.80;5.57;;;15.80;1.00;;;;;;6258166;28;20635;-55
2022/08/30 03:58:10;;;;;;;7.90;7.23;;;15.80;1.00;;;;;;6278712;28;20334;-54
2022/08/30 04:01:13;;;;;;;7.50;7.10;;;15.80;1.00;;;;;;6284593;28;20240;-54
2022/08/30 04:04:20;;;;;;;9.13;8.50;;;15.80;1.00;;;;;;6279552;28;20254;-54
2022/08/30 04:07:23;;;;;;;8.20;7.80;;;15.80;1.00;;;;;;6277629;28;20829;-55
2022/08/30 04:10:26;;;;;;;7.80;7.40;;;15.70;1.00;;;;;;6283862;28;20279;-55
2022/08/30 04:13:30;;;;;;;7.03;6.73;;;15.70;1.00;;;;;;6284830;28;20240;-55
2022/08/30 04:16:34;;;;;;;7.80;7.40;;;15.70;1.00;;;;;;6283456;28;20726;-54
2022/08/30 04:19:37;;;;;;;8.37;7.87;;;15.70;1.00;;;;;;6284918;28;20382;-55
2022/08/30 04:22:41;;;;;;;8.37;7.87;;;15.70;1.00;;;;;;6285230;28;20237;-54
2022/08/30 04:25:44;;;;;;;8.83;8.13;;;15.80;1.00;;;;;;6285489;28;20314;-54
2022/08/30 04:28:48;;;;;;;9.23;8.53;;;15.80;1.00;;;;;;6281432;28;20244;-54
2022/08/30 04:31:51;;;;;;;9.43;7.90;;;15.90;1.00;;;;;;6281179;28;20237;-55
2022/08/30 04:34:59;;;;;;;8.63;7.90;;;15.90;1.00;;;;;;6282661;28;20374;-55
2022/08/30 04:38:03;;;;;;;9.47;8.70;;;15.90;1.00;;;;;;6282389;28;20243;-56
2022/08/30 04:41:15;;;;;;;9.27;8.33;;;16.00;1.00;;;;;;6285282;28;20809;-55
2022/08/30 04:44:19;;;;;;;9.07;8.37;;;16.00;1.00;;;;;;6279533;28;20302;-55
2022/08/30 04:47:22;;;;;;;9.03;8.43;;;16.00;1.00;;;;;;6284633;28;20244;-54
2022/08/30 04:50:25;;;;;;;8.80;7.93;;;16.00;1.00;;;;;;6282344;28;20361;-55
2022/08/30 04:53:28;;;;;;;8.40;7.90;;;16.10;1.00;;;;;;6280310;28;20229;-55
2022/08/30 04:56:31;;;;;;;9.00;8.40;;;16.00;1.00;;;;;;6283239;28;20595;-55
2022/08/30 04:59:36;;;;;;;7.73;7.27;;;16.10;1.00;;;;;;6283651;28;20945;-54
2022/08/30 05:02:39;;;;;;;8.20;7.60;;;16.10;1.00;;;;;;6279955;28;20390;-55
2022/08/30 05:05:47;;;;;;;8.27;7.87;;;16.00;1.00;;;;;;6283976;28;20274;-55
2022/08/30 05:08:52;;;;;;;8.23;7.53;;;16.10;1.00;;;;;;6282272;28;20298;-55
2022/08/30 05:11:54;;;;;;;8.70;8.00;;;16.00;1.00;;;;;;6283625;28;20303;-55
2022/08/30 05:14:59;;;;;;;9.77;9.07;;;16.10;1.00;;;;;;6283429;28;20289;-55
2022/08/30 05:18:02;;;;;;;8.50;7.90;;;16.10;1.00;;;;;;6283769;28;20233;-55
2022/08/30 05:21:07;;;;;;;7.57;7.17;;;16.10;1.00;;;;;;6283291;28;20955;-55
2022/08/30 05:24:14;;;;;;;8.47;7.97;;;16.10;1.00;;;;;;6284170;28;20327;-55
2022/08/30 05:27:19;;;;;;;10.90;9.90;;;16.10;1.00;;;;;;6282357;28;20621;-55
2022/08/30 05:30:24;;;;;;;16.10;12.83;;;16.10;1.00;;;;;;6282491;28;20233;-55
2022/08/30 05:33:27;;;;;;;11.13;10.00;;;16.20;1.00;;;;;;6282348;28;20725;-55
2022/08/30 05:36:33;;;;;;;18.17;13.00;;;16.20;1.00;;;;;;6278482;28;20641;-55
2022/08/30 05:39:38;;;;;;;10.37;9.57;;;16.30;1.00;;;;;;6278178;28;20229;-55
2022/08/30 05:42:53;;;;;;;9.90;9.10;;;16.30;1.00;;;;;;6274646;28;20420;-54
2022/08/30 05:46:00;;;;;;;9.97;9.27;;;16.40;1.00;;;;;;6283065;28;20234;-56
2022/08/30 05:49:05;;;;;;;10.17;9.27;;;16.50;1.00;;;;;;6274385;28;20245;-56
2022/08/30 05:52:08;;;;;;;9.47;8.63;;;16.50;1.00;;;;;;6269683;28;20230;-56
2022/08/30 05:55:11;;;;;;;8.57;8.10;;;16.60;1.00;;;;;;6282911;28;20240;-55
2022/08/30 05:58:14;;;;;;;8.93;8.33;;;16.60;1.00;;;;;;6282682;28;20229;-55
2022/08/30 06:01:24;;;;;;;10.10;9.43;;;16.70;1.00;;;;;;6278642;28;20241;-55
2022/08/30 06:04:27;;;;;;;9.50;8.90;;;16.70;1.00;;;;;;6277315;28;20229;-56
2022/08/30 06:07:31;;;;;;;9.27;8.67;;;16.80;1.00;;;;;;6278722;28;20496;-55
2022/08/30 06:10:34;;;;;;;10.70;9.90;;;16.80;1.00;;;;;;6275188;28;20244;-56
2022/08/30 06:13:37;;;;;;;10.53;9.73;;;16.90;1.00;;;;;;6282679;28;20677;-56
2022/08/30 06:16:44;;;;;;;11.60;10.60;;;17.00;1.00;;;;;;6282662;28;20439;-57
2022/08/30 06:19:47;;;;;;;12.27;11.07;;;17.10;1.00;;;;;;6278694;28;20225;-55
2022/08/30 06:22:58;;;;;;;12.23;11.10;;;17.20;1.00;;;;;;6282437;28;20848;-55
2022/08/30 06:26:04;;;;;;;10.27;9.37;;;17.30;1.00;;;;;;6270362;28;20268;-56
2022/08/30 06:29:09;;;;;;;10.20;9.47;;;17.40;1.00;;;;;;6281510;28;20382;-56
2022/08/30 06:32:13;;;;;;;13.87;12.23;;;17.50;1.00;;;;;;6281764;28;20236;-57
2022/08/30 06:35:16;;;;;;;16.33;12.43;;;17.60;1.00;;;;;;6276201;28;20631;-55
2022/08/30 06:38:19;;;;;;;11.57;10.57;;;17.70;1.00;;;;;;6276237;28;20331;-55
2022/08/30 06:41:26;;;;;;;12.33;11.30;;;17.70;1.00;;;;;;6281406;28;20789;-55
2022/08/30 06:44:29;;;;;;;11.03;10.23;;;17.80;1.00;;;;;;6271779;28;20650;-56
2022/08/30 06:47:33;;;;;;;10.97;10.27;;;17.80;1.00;;;;;;6280848;28;20466;-56
2022/08/30 06:50:36;;;;;;;11.87;9.93;;;17.90;1.00;;;;;;6282265;28;20387;-56
2022/08/30 06:53:39;;;;;;;15.80;13.93;;;17.90;1.00;;;;;;6278333;28;20229;-55
2022/08/30 06:56:42;;;;;;;11.83;10.93;;;18.00;1.00;;;;;;6278881;28;20268;-54
2022/08/30 07:00:01;;;;;;;12.37;11.37;;;18.10;1.00;;;;;;6281164;28;20245;-54
2022/08/30 07:03:05;;;;;;;14.23;12.00;;;18.20;1.00;;;;;;6272856;28;20373;-55
2022/08/30 07:06:09;;;;;;;10.83;9.97;;;18.20;1.00;;;;;;6282307;28;20233;-55
2022/08/30 07:09:11;;;;;;;12.20;11.20;;;18.30;1.00;;;;;;6280760;28;20756;-55
2022/08/30 07:12:16;;;;;;;12.43;11.43;;;18.50;1.00;;;;;;6279508;28;20233;-55
2022/08/30 07:15:21;;;;;;;13.77;12.33;;;18.50;1.00;;;;;;6279219;28;20387;-55
2022/08/30 07:21:47;;;;;;;10.37;9.60;;;18.70;1.00;;;;;;6278466;28;20308;-55
2022/08/30 07:24:51;;;;;;;12.43;11.30;;;18.80;1.00;;;;;;6278287;28;20259;-55
2022/08/30 07:27:55;;;;;;;11.03;9.93;;;18.90;1.00;;;;;;6280809;28;20293;-55
2022/08/30 07:30:58;;;;;;;10.70;9.73;;;18.90;1.00;;;;;;6279114;28;20320;-55
2022/08/30 07:34:04;;;;;;;11.10;10.00;;;19.00;1.00;;;;;;6267422;28;20713;-55
2022/08/30 07:37:07;;;;;;;9.87;9.17;;;19.10;1.00;;;;;;6282349;28;20286;-54
2022/08/30 07:40:11;;;;;;;8.80;8.30;;;19.20;1.00;;;;;;6279198;28;20818;-57
2022/08/30 07:43:14;;;;;;;9.07;8.47;;;19.40;1.00;;;;;;6274250;28;20284;-54
2022/08/30 07:46:18;;;;;;;9.10;8.17;;;19.60;1.00;;;;;;6280791;28;20261;-54
2022/08/30 07:49:23;;;;;;;10.60;9.83;;;19.70;1.00;;;;;;6278456;28;20252;-56
2022/08/30 07:52:28;;;;;;;9.57;8.83;;;19.70;1.00;;;;;;6281451;28;20670;-55
2022/08/30 07:55:32;;;;;;;9.00;8.50;;;19.70;1.00;;;;;;6280630;28;20573;-55
2022/08/30 07:58:48;;;;;;;9.00;8.13;;;19.60;1.00;;;;;;6276862;28;20252;-55
2022/08/30 08:01:51;;;;;;;8.93;8.23;;;19.60;1.00;;;;;;6280046;28;20758;-57
2022/08/30 08:04:56;;;;;;;8.37;7.93;;;19.60;1.00;;;;;;6279872;28;20717;-57
2022/08/30 08:07:58;;;;;;;7.90;7.50;;;19.60;1.00;;;;;;6275099;28;20287;-56
2022/08/30 08:11:06;;;;;;;8.23;7.73;;;19.60;1.00;;;;;;6280421;28;20459;-56
2022/08/30 08:14:10;;;;;;;6.80;6.40;;;19.50;1.00;;;;;;6280321;28;20772;-56
2022/08/30 08:17:13;;;;;;;7.67;6.97;;;19.50;1.00;;;;;;6278715;28;20735;-55
2022/08/30 08:20:17;;;;;;;6.93;6.43;;;19.70;1.00;;;;;;6274904;28;20714;-55
2022/08/30 08:23:21;;;;;;;6.10;5.50;;;19.80;1.00;;;;;;6274034;28;20780;-55
2022/08/30 08:26:24;;;;;;;6.07;5.77;;;19.90;1.00;;;;;;6275528;28;20241;-56
2022/08/30 08:29:27;;;;;;;4.60;4.50;;;19.90;1.00;;;;;;6279083;28;20265;-56
2022/08/30 08:32:30;;;;;;;4.90;4.60;;;20.00;1.00;;;;;;6281646;28;20249;-56
2022/08/30 08:35:34;;;;;;;4.20;4.10;;;20.10;1.00;;;;;;6284721;28;20765;-55
2022/08/30 08:38:37;;;;;;;4.30;4.10;;;20.30;1.00;;;;;;6281757;28;20292;-56
2022/08/30 08:41:55;;;;;;;3.30;3.20;;;20.60;1.00;;;;;;6284003;28;20628;-56
2022/08/30 08:45:03;;;;;;;3.63;3.47;;;20.70;1.00;;;;;;6281604;28;20315;-56
2022/08/30 08:48:22;;;;;;;3.73;3.53;;;20.80;1.00;;;;;;6283526;28;20324;-56
2022/08/30 08:55:01;;;;;;;3.80;3.67;;;21.00;1.00;;;;;;6283591;28;20683;-55
2022/08/30 08:58:05;;;;;;;2.77;2.73;;;20.90;1.00;;;;;;6279427;28;20749;-57
2022/08/30 09:01:09;;;;;;;3.50;3.30;;;21.00;1.00;;;;;;6283054;28;20263;-56
2022/08/30 09:04:16;;;;;;;3.33;3.13;;;21.10;1.00;;;;;;6284398;28;20322;-56
2022/08/30 09:07:31;;;;;;;3.00;3.00;;;21.10;1.00;;;;;;6280603;28;20245;-56
2022/08/30 09:10:35;;;;;;;2.30;2.30;;;21.30;1.00;;;;;;6284168;28;20782;-56
2022/08/30 09:13:54;;;;;;;2.57;2.57;;;21.40;1.00;;;;;;6284170;28;20248;-57
2022/08/30 09:17:01;;;;;;;2.30;2.30;;;21.30;1.00;;;;;;6283076;28;20857;-56
2022/08/30 09:20:05;;;;;;;2.20;2.10;;;21.20;1.00;;;;;;6283336;28;20772;-59
2022/08/30 09:23:27;;;;;;;2.90;2.60;;;21.30;1.00;;;;;;6283650;28;20291;-56
2022/08/30 09:26:32;;;;;;;2.73;2.60;;;21.30;1.00;;;;;;6281458;28;20310;-56
2022/08/30 09:29:34;;;;;;;2.87;2.77;;;21.30;1.00;;;;;;6283015;28;20236;-56
2022/08/30 09:32:40;;;;;;;2.53;2.37;;;21.10;1.00;;;;;;6278235;28;20409;-56
2022/08/30 09:35:48;;;;;;;2.80;2.70;;;21.00;1.00;;;;;;6282683;28;20233;-55
2022/08/30 09:39:01;;;;;;;3.37;3.00;;;20.90;1.00;;;;;;6280779;28;20242;-56
2022/08/30 09:42:13;;;;;;;2.70;2.60;;;20.90;1.00;;;;;;6283194;28;20240;-56
2022/08/30 09:45:30;;;;;;;3.00;2.80;;;20.70;1.00;;;;;;6280498;28;20279;-56
2022/08/30 09:48:36;;;;;;;2.63;2.50;;;20.80;1.00;;;;;;6280562;28;20237;-57
2022/08/30 09:51:51;;;;;;;2.30;2.20;;;20.80;1.00;;;;;;6278311;28;20233;-56
2022/08/30 09:55:09;;;;;;;2.20;2.10;;;21.00;1.00;;;;;;6279008;28;20388;-55
2022/08/30 09:58:22;;;;;;;2.60;2.50;;;21.10;1.00;;;;;;6279107;28;20230;-57
2022/08/30 10:01:36;;;;;;;2.47;2.37;;;21.30;1.00;;;;;;6281178;28;20229;-56
2022/08/30 10:04:46;;;;;;;2.87;2.77;;;21.30;1.00;;;;;;6280713;28;20230;-57
2022/08/30 10:07:58;;;;;;;2.30;2.30;;;21.30;1.00;;;;;;6279711;28;20279;-57
2022/08/30 10:11:07;;;;;;;2.67;2.40;;;21.40;1.00;;;;;;6280411;28;20291;-58
2022/08/30 10:14:45;;;;;;;2.40;2.30;;;21.40;1.00;;;;;;6280508;28;20318;-57
2022/08/30 10:17:56;;;;;;;2.43;2.43;;;21.50;1.00;;;;;;6279263;28;20232;-56
2022/08/30 10:21:07;;;;;;;2.07;2.07;;;21.40;1.00;;;;;;6286681;28;20237;-56
2022/08/30 10:24:12;;;;;;;3.00;2.40;;;21.60;1.00;;;;;;6278426;28;20324;-57
2022/08/30 10:27:29;;;;;;;2.40;2.30;;;21.70;1.00;;;;;;6282125;28;20275;-56
2022/08/30 10:30:39;;;;;;;2.17;2.17;;;21.90;1.00;;;;;;6280598;28;20276;-56
2022/08/30 10:33:45;;;;;;;4.50;2.60;;;22.00;1.00;;;;;;6281023;28;20243;-57
2022/08/30 10:36:56;;;;;;;4.00;2.07;;;22.20;1.00;;;;;;6270112;28;20656;-56
2022/08/30 10:41:11;;;;;;;2.40;1.97;;;22.20;1.00;;;;;;6277973;28;20237;-56
2022/08/30 10:43:33;;;;;;;1.70;1.70;;;22.40;1.00;;;;;;6275293;28;20260;-56
2022/08/30 10:46:59;;;;;;;1.70;1.70;;;22.50;1.00;;;;;;6281321;28;20716;-58
2022/08/30 10:50:09;;;;;;;1.83;1.83;;;22.60;1.00;;;;;;6280266;28;20268;-57
2022/08/30 10:53:17;;;;;;;1.80;1.80;;;22.70;1.00;;;;;;6275828;28;20795;-59
2022/08/30 10:56:25;;;;;;;2.33;2.33;;;22.80;1.00;;;;;;6279979;28;20547;-56
2022/08/30 10:59:29;;;;;;;1.57;1.57;;;23.00;1.00;;;;;;6280689;28;20336;-57
2022/08/30 11:03:19;;;;;;;2.60;2.50;;;23.00;1.00;;;;;;6280728;28;20221;-57
2022/08/30 11:06:29;;;;;;;2.40;2.30;;;23.00;1.00;;;;;;6273921;28;20246;-56
2022/08/30 11:09:43;;;;;;;2.00;2.00;;;23.00;1.00;;;;;;6281513;28;20628;-56
2022/08/30 11:12:55;;;;;;;2.47;2.27;;;23.10;1.00;;;;;;6276171;28;20582;-55
2022/08/30 11:16:04;;;;;;;2.20;2.10;;;23.20;1.00;;;;;;6280656;28;20229;-56
2022/08/30 11:19:17;;;;;;;2.00;2.00;;;23.20;1.00;;;;;;6272573;28;20332;-56
2022/08/30 11:22:25;;;;;;;2.20;2.20;;;23.20;1.00;;;;;;6280060;28;20320;-56
2022/08/30 11:25:48;;;;;;;2.27;2.17;;;23.40;1.00;;;;;;6282094;28;20630;-58
2022/08/30 11:29:05;;;;;;;2.13;2.13;;;23.50;1.00;;;;;;6280819;28;20233;-57
2022/08/30 11:32:58;;;;;;;2.33;2.20;;;23.50;1.00;;;;;;6269138;28;20246;-57
2022/08/30 11:36:06;;;;;;;2.37;2.27;;;23.40;1.00;;;;;;6255187;28;20293;-57
2022/08/30 11:39:12;;;;;;;2.17;2.10;;;23.50;1.00;;;;;;6279211;28;20783;-57
2022/08/30 11:42:46;;;;;;;2.80;2.70;;;23.60;1.00;;;;;;6280721;28;20267;-56
2022/08/30 11:45:54;;;;;;;2.77;2.57;;;23.90;1.00;;;;;;6276058;28;20298;-56
2022/08/30 11:49:04;;;;;;;2.53;2.43;;;24.10;1.00;;;;;;6280086;28;20233;-55
2022/08/30 11:52:34;;;;;;;2.17;2.07;;;24.00;1.00;;;;;;6276272;28;20241;-57
2022/08/30 11:55:45;;;;;;;2.43;2.33;;;24.10;1.00;;;;;;6276091;28;20850;-56
2022/08/30 11:58:53;;;;;;;3.23;2.30;;;24.30;1.00;;;;;;6280315;28;20298;-57
2022/08/30 12:02:00;;;;;;;2.43;2.43;;;24.10;1.00;;;;;;6275538;28;20226;-58
2022/08/30 12:05:04;;;;;;;2.10;2.10;;;24.10;1.00;;;;;;6284048;28;20237;-57
2022/08/30 12:08:11;;;;;;;2.30;2.20;;;24.20;1.00;;;;;;6277672;28;20334;-56
2022/08/30 12:11:55;;;;;;;2.40;2.40;;;24.30;1.00;;;;;;6283451;28;20237;-56
2022/08/30 12:14:59;;;;;;;2.50;2.50;;;24.20;1.00;;;;;;6282882;28;20306;-57
2022/08/30 12:21:29;;;;;;;2.77;2.53;;;24.10;1.00;;;;;;6279298;28;20708;-57
2022/08/30 12:24:53;;;;;;;2.50;2.40;;;24.10;1.00;;;;;;6284348;28;20229;-56
2022/08/30 12:28:15;;;;;;;2.13;2.10;;;24.10;1.00;;;;;;6283180;28;20233;-57
2022/08/30 12:31:22;;;;;;;2.20;2.10;;;24.20;1.00;;;;;;6273068;28;20310;-57
2022/08/30 12:34:27;;;;;;;3.40;2.40;;;24.20;1.00;;;;;;6284356;28;20507;-57
2022/08/30 12:37:33;;;;;;;2.20;2.20;;;24.40;1.00;;;;;;6280535;28;20240;-58
2022/08/30 12:40:50;;;;;;;2.20;2.10;;;24.60;1.00;;;;;;6286045;28;20243;-57
2022/08/30 12:43:54;;;;;;;1.90;1.80;;;24.90;1.00;;;;;;6283401;28;20356;-57
2022/08/30 12:47:02;;;;;;;2.00;2.00;;;25.10;1.00;;;;;;6282035;28;20840;-56
2022/08/30 12:50:06;;;;;;;1.80;1.80;;;25.40;1.00;;;;;;6283699;28;20237;-58
2022/08/30 12:53:20;;;;;;;1.90;1.90;;;25.30;1.00;;;;;;6276593;28;20240;-58
2022/08/30 12:56:46;;;;;;;2.40;2.30;;;25.40;1.00;;;;;;6284690;28;20236;-56
2022/08/30 12:59:55;;;;;;;2.07;2.07;;;25.30;1.00;;;;;;6237312;28;20376;-53
2022/08/30 13:03:04;;;;;;;2.13;2.13;;;25.30;1.00;;;;;;6274827;28;20226;-57
2022/08/30 13:06:38;;;;;;;2.30;2.30;;;25.30;1.00;;;;;;6277405;28;20241;-57
2022/08/30 13:09:43;;;;;;;4.70;2.70;;;25.20;1.00;;;;;;6282326;28;20230;-57
2022/08/30 13:13:02;;;;;;;2.53;2.43;;;25.10;1.00;;;;;;6283851;28;20237;-56
2022/08/30 13:16:24;;;;;;;2.70;2.70;;;24.80;1.00;;;;;;6283163;28;20232;-57
2022/08/30 13:19:34;;;;;;;2.83;2.80;;;24.80;1.00;;;;;;6278450;28;20613;-57
2022/08/30 13:22:38;;;;;;;3.47;3.27;;;24.80;1.00;;;;;;6270562;28;20261;-57
2022/08/30 13:25:41;;;;;;;3.10;3.10;;;24.50;1.00;;;;;;6273921;28;20574;-57
2022/08/30 13:28:51;;;;;;;3.43;3.33;;;24.50;1.00;;;;;;6282228;28;20232;-57
2022/08/30 13:31:56;;;;;;;3.23;3.03;;;24.50;1.00;;;;;;6283189;28;20291;-57
2022/08/30 13:35:00;;;;;;;2.73;2.73;;;24.40;1.00;;;;;;6279425;28;20748;-57
2022/08/30 13:38:06;;;;;;;2.73;2.63;;;24.30;1.00;;;;;;6271894;28;20847;-56
2022/08/30 13:41:09;;;;;;;3.13;2.73;;;24.20;1.00;;;;;;6282288;28;20234;-56
2022/08/30 13:44:14;;;;;;;3.17;3.07;;;24.10;1.00;;;;;;6283083;28;20483;-56
2022/08/30 13:47:19;;;;;;;3.07;2.97;;;24.00;1.00;;;;;;6281622;28;20314;-56
2022/08/30 13:50:39;;;;;;;4.10;2.90;;;23.90;1.00;;;;;;6282563;28;20325;-57
2022/08/30 13:53:42;;;;;;;3.57;3.43;;;23.80;1.00;;;;;;6283270;28;20639;-56
2022/08/30 13:57:00;;;;;;;3.23;3.13;;;23.70;1.00;;;;;;6277006;28;20262;-57
2022/08/30 14:00:10;;;;;;;3.37;3.20;;;23.60;1.00;;;;;;6279036;28;20272;-57
2022/08/30 14:03:14;;;;;;;3.17;3.07;;;23.50;1.00;;;;;;6281598;28;20244;-58
2022/08/30 14:06:18;;;;;;;3.80;3.63;;;23.50;1.00;;;;;;6282719;28;20286;-57
2022/08/30 14:09:35;;;;;;;3.20;3.00;;;23.40;1.00;;;;;;6282381;28;20229;-56
2022/08/30 14:12:38;;;;;;;2.57;2.37;;;23.30;1.00;;;;;;6279686;28;20229;-57
2022/08/30 14:16:06;;;;;;;2.70;2.50;;;23.30;1.00;;;;;;6270257;28;20749;-56
2022/08/30 14:19:29;;;;;;;3.43;3.23;;;23.30;1.00;;;;;;6281388;28;20275;-57
2022/08/30 14:22:32;;;;;;;3.37;3.30;;;23.30;1.00;;;;;;6281967;28;20711;-56
2022/08/30 14:25:35;;;;;;;2.97;2.87;;;23.20;1.00;;;;;;6279024;28;20615;-56
2022/08/30 14:28:38;;;;;;;3.67;3.37;;;23.30;1.00;;;;;;6282325;28;20233;-56
2022/08/30 14:31:43;;;;;;;3.13;2.80;;;23.10;1.00;;;;;;6281224;28;20229;-56
2022/08/30 14:34:48;;;;;;;3.43;3.13;;;23.20;1.00;;;;;;6279253;28;20384;-55
2022/08/30 14:37:52;;;;;;;3.33;3.13;;;23.10;1.00;;;;;;6272820;28;20233;-57
2022/08/30 14:40:57;;;;;;;3.60;3.40;;;23.20;1.00;;;;;;6279308;28;20797;-57
2022/08/30 14:44:02;;;;;;;3.70;3.47;;;23.10;1.00;;;;;;6271770;28;20225;-55
2022/08/30 14:47:08;;;;;;;3.53;3.40;;;23.00;1.00;;;;;;6281794;28;20236;-57
2022/08/30 14:50:14;;;;;;;3.60;3.50;;;22.90;1.00;;;;;;6277211;28;20275;-56
2022/08/30 14:53:17;;;;;;;3.53;3.43;;;22.70;1.00;;;;;;6281100;28;20290;-57
2022/08/30 14:56:22;;;;;;;3.33;3.20;;;22.70;1.00;;;;;;6281108;28;20512;-56
2022/08/30 14:59:38;;;;;;;3.73;3.63;;;22.70;1.00;;;;;;6281098;28;20249;-57
2022/08/30 15:02:43;;;;;;;3.80;3.50;;;22.70;1.00;;;;;;6280690;28;20447;-57
2022/08/30 15:05:50;;;;;;;3.60;3.50;;;22.60;1.00;;;;;;6281456;28;20729;-57
2022/08/30 15:08:55;;;;;;;4.00;3.80;;;22.60;1.00;;;;;;6275829;28;20225;-57
2022/08/30 15:12:01;;;;;;;3.60;3.43;;;22.50;1.00;;;;;;6280268;28;20316;-57
2022/08/30 15:15:04;;;;;;;3.80;3.60;;;22.50;1.00;;;;;;6280598;28;20238;-57
2022/08/30 15:18:09;;;;;;;3.90;3.80;;;22.50;1.00;;;;;;6279953;28;20327;-57
2022/08/30 15:21:12;;;;;;;4.10;3.80;;;22.50;1.00;;;;;;6279288;28;20306;-57
2022/08/30 15:24:17;;;;;;;4.17;3.43;;;22.40;1.00;;;;;;6281702;28;20287;-57
2022/08/30 15:27:26;;;;;;;3.60;3.40;;;22.30;1.00;;;;;;6275314;28;20256;-58
2022/08/30 15:30:30;;;;;;;4.87;3.77;;;22.40;1.00;;;;;;6271763;28;20761;-58
2022/08/30 15:33:34;;;;;;;3.57;3.47;;;22.20;1.00;;;;;;6278829;28;20628;-56
2022/08/30 15:36:38;;;;;;;3.90;3.47;;;22.40;1.00;;;;;;6278893;28;20236;-57
2022/08/30 15:39:43;;;;;;;4.33;3.27;;;22.40;1.00;;;;;;6282201;28;20268;-54
2022/08/30 15:42:46;;;;;;;3.70;3.50;;;22.40;1.00;;;;;;6285272;28;20653;-53
2022/08/30 15:45:54;;;;;;;3.60;3.50;;;22.40;1.00;;;;;;6284302;28;20241;-59
2022/08/30 15:49:02;;;;;;;3.70;3.50;;;22.40;1.00;;;;;;6279845;28;20237;-57
2022/08/30 15:52:05;;;;;;;4.20;3.83;;;22.50;1.00;;;;;;6284797;28;20237;-57
2022/08/30 15:55:10;;;;;;;3.40;3.30;;;22.50;1.00;;;;;;6285793;28;20241;-56
2022/08/30 15:58:13;;;;;;;3.50;3.40;;;22.50;1.00;;;;;;6283230;28;20239;-56
2022/08/30 16:01:16;;;;;;;3.47;3.37;;;22.50;1.00;;;;;;6280762;28;20722;-58
2022/08/30 16:04:22;;;;;;;3.10;3.07;;;22.50;1.00;;;;;;6283732;28;20251;-56
2022/08/30 16:07:27;;;;;;;3.13;3.03;;;22.40;1.00;;;;;;6278585;28;20238;-56
2022/08/30 16:10:30;;;;;;;3.40;3.30;;;22.40;1.00;;;;;;6284259;28;20718;-56
2022/08/30 16:13:33;;;;;;;3.07;3.07;;;22.40;1.00;;;;;;6284703;28;20332;-57
2022/08/30 16:16:37;;;;;;;2.80;2.80;;;22.30;1.00;;;;;;6284241;28;20328;-56
2022/08/30 16:19:44;;;;;;;3.10;3.00;;;22.30;1.00;;;;;;6283711;28;20328;-57
2022/08/30 16:22:47;;;;;;;3.60;3.30;;;22.20;1.00;;;;;;6282377;28;20233;-56
2022/08/30 16:25:49;;;;;;;2.93;2.93;;;22.30;1.00;;;;;;6280281;28;20237;-56
2022/08/30 16:28:54;;;;;;;2.63;2.53;;;22.20;1.00;;;;;;6279021;28;20229;-57
2022/08/30 16:32:00;;;;;;;3.57;3.40;;;22.10;1.00;;;;;;6276671;28;20792;-57
2022/08/30 16:35:06;;;;;;;3.20;3.07;;;22.00;1.00;;;;;;6280053;28;20541;-56